sensor_id;sensor_type;location;lat;lon;timestamp;pressure;altitude;pressure_sealevel;temperature;humidity
27040;BME280;14589;51.578;7.306;2023-06-14T00:01:10;100878.09;;;17.46;51.43
27040;BME280;14589;51.578;7.306;2023-06-14T00:03:43;100867.69;;;17.42;51.82
27040;BME280;14589;51.578;7.306;2023-06-14T00:06:14;100870.53;;;17.33;52.23
27040;BME280;14589;51.578;7.306;2023-06-14T00:08:44;100879.78;;;17.32;52.60
27040;BME280;14589;51.578;7.306;2023-06-14T00:11:15;100869.78;;;17.25;52.63
27040;BME280;14589;51.578;7.306;2023-06-14T00:13:45;100876.84;;;17.19;52.55
27040;BME280;14589;51.578;7.306;2023-06-14T00:16:16;100873.84;;;17.14;51.96
27040;BME280;14589;51.578;7.306;2023-06-14T00:18:47;100886.69;;;17.14;52.85
27040;BME280;14589;51.578;7.306;2023-06-14T00:21:17;100888.47;;;17.07;52.52
27040;BME280;14589;51.578;7.306;2023-06-14T00:23:48;100890.19;;;17.08;52.50
27040;BME280;14589;51.578;7.306;2023-06-14T00:26:18;100891.56;;;17.04;52.77
27040;BME280;14589;51.578;7.306;2023-06-14T00:28:48;100896.88;;;17.05;51.11
27040;BME280;14589;51.578;7.306;2023-06-14T00:31:19;100889.31;;;17.07;50.67
27040;BME280;14589;51.578;7.306;2023-06-14T00:33:51;100893.28;;;17.05;51.37
27040;BME280;14589;51.578;7.306;2023-06-14T00:36:21;100908.00;;;17.04;51.01
27040;BME280;14589;51.578;7.306;2023-06-14T00:38:51;100903.47;;;17.11;48.51
27040;BME280;14589;51.578;7.306;2023-06-14T00:41:22;100900.56;;;17.12;47.60
27040;BME280;14589;51.578;7.306;2023-06-14T00:43:52;100894.06;;;17.13;47.14
27040;BME280;14589;51.578;7.306;2023-06-14T00:46:25;100904.09;;;17.21;46.09
27040;BME280;14589;51.578;7.306;2023-06-14T00:48:56;100899.47;;;17.21;46.01
27040;BME280;14589;51.578;7.306;2023-06-14T00:51:28;100895.66;;;17.22;46.32
27040;BME280;14589;51.578;7.306;2023-06-14T00:53:59;100897.94;;;17.19;46.80
27040;BME280;14589;51.578;7.306;2023-06-14T00:56:30;100910.22;;;17.23;45.85
27040;BME280;14589;51.578;7.306;2023-06-14T00:59:02;100897.25;;;17.17;45.70
27040;BME280;14589;51.578;7.306;2023-06-14T01:01:32;100913.91;;;17.15;48.21
27040;BME280;14589;51.578;7.306;2023-06-14T01:04:04;100910.84;;;17.10;49.62
27040;BME280;14589;51.578;7.306;2023-06-14T01:10:15;100929.53;;;16.92;48.98
27040;BME280;14589;51.578;7.306;2023-06-14T01:12:56;100917.91;;;16.90;49.79
27040;BME280;14589;51.578;7.306;2023-06-14T01:15:30;100923.00;;;16.78;50.84
27040;BME280;14589;51.578;7.306;2023-06-14T01:18:01;100928.25;;;16.65;51.82
27040;BME280;14589;51.578;7.306;2023-06-14T01:20:34;100928.09;;;16.58;51.20
27040;BME280;14589;51.578;7.306;2023-06-14T01:23:08;100927.28;;;16.50;51.50
27040;BME280;14589;51.578;7.306;2023-06-14T01:25:38;100933.84;;;16.41;50.99
27040;BME280;14589;51.578;7.306;2023-06-14T01:28:15;100936.47;;;16.34;51.82
27040;BME280;14589;51.578;7.306;2023-06-14T01:30:49;100932.75;;;16.27;52.55
27040;BME280;14589;51.578;7.306;2023-06-14T01:33:26;100922.53;;;16.21;53.00
27040;BME280;14589;51.578;7.306;2023-06-14T01:35:57;100923.78;;;16.10;52.52
27040;BME280;14589;51.578;7.306;2023-06-14T01:38:29;100921.06;;;16.10;53.79
27040;BME280;14589;51.578;7.306;2023-06-14T01:41:03;100917.63;;;16.08;53.81
27040;BME280;14589;51.578;7.306;2023-06-14T01:43:34;100931.66;;;16.05;54.49
27040;BME280;14589;51.578;7.306;2023-06-14T01:46:05;100924.03;;;15.93;55.06
27040;BME280;14589;51.578;7.306;2023-06-14T01:48:36;100934.31;;;15.91;54.64
27040;BME280;14589;51.578;7.306;2023-06-14T01:51:07;100929.03;;;15.89;54.92
27040;BME280;14589;51.578;7.306;2023-06-14T01:53:38;100925.97;;;15.84;55.50
27040;BME280;14589;51.578;7.306;2023-06-14T01:56:08;100929.91;;;15.82;55.77
27040;BME280;14589;51.578;7.306;2023-06-14T01:58:39;100935.22;;;15.75;56.25
27040;BME280;14589;51.578;7.306;2023-06-14T02:01:10;100929.75;;;15.75;56.19
27040;BME280;14589;51.578;7.306;2023-06-14T02:03:41;100927.56;;;15.70;55.92
27040;BME280;14589;51.578;7.306;2023-06-14T02:06:12;100928.75;;;15.68;53.85
27040;BME280;14589;51.578;7.306;2023-06-14T02:08:44;100931.00;;;15.64;54.27
27040;BME280;14589;51.578;7.306;2023-06-14T02:11:15;100931.03;;;15.56;55.31
27040;BME280;14589;51.578;7.306;2023-06-14T02:13:45;100933.59;;;15.50;55.35
27040;BME280;14589;51.578;7.306;2023-06-14T02:16:16;100933.59;;;15.50;55.95
27040;BME280;14589;51.578;7.306;2023-06-14T02:18:47;100936.84;;;15.45;56.04
27040;BME280;14589;51.578;7.306;2023-06-14T02:21:18;100937.72;;;15.37;56.64
27040;BME280;14589;51.578;7.306;2023-06-14T02:23:50;100944.03;;;15.38;56.27
27040;BME280;14589;51.578;7.306;2023-06-14T02:26:20;100943.72;;;15.33;55.86
27040;BME280;14589;51.578;7.306;2023-06-14T02:28:51;100934.50;;;15.26;56.64
27040;BME280;14589;51.578;7.306;2023-06-14T02:31:21;100946.66;;;15.23;56.17
27040;BME280;14589;51.578;7.306;2023-06-14T02:33:53;100942.38;;;15.21;55.95
27040;BME280;14589;51.578;7.306;2023-06-14T02:36:24;100937.75;;;15.21;54.34
27040;BME280;14589;51.578;7.306;2023-06-14T02:38:55;100942.75;;;15.18;54.92
27040;BME280;14589;51.578;7.306;2023-06-14T02:41:28;100942.53;;;15.19;54.16
27040;BME280;14589;51.578;7.306;2023-06-14T02:43:59;100936.59;;;15.16;53.53
27040;BME280;14589;51.578;7.306;2023-06-14T02:46:32;100935.91;;;15.14;54.44
27040;BME280;14589;51.578;7.306;2023-06-14T02:49:03;100944.09;;;15.14;53.79
27040;BME280;14589;51.578;7.306;2023-06-14T02:51:35;100936.75;;;15.14;52.89
27040;BME280;14589;51.578;7.306;2023-06-14T02:54:05;100943.91;;;15.15;52.71
27040;BME280;14589;51.578;7.306;2023-06-14T02:56:36;100948.22;;;15.10;53.60
27040;BME280;14589;51.578;7.306;2023-06-14T02:59:07;100948.22;;;15.10;53.88
27040;BME280;14589;51.578;7.306;2023-06-14T03:01:37;100952.31;;;15.06;53.86
27040;BME280;14589;51.578;7.306;2023-06-14T03:04:12;100951.28;;;14.98;54.96
27040;BME280;14589;51.578;7.306;2023-06-14T03:06:44;100964.94;;;14.98;54.15
27040;BME280;14589;51.578;7.306;2023-06-14T03:09:21;100964.25;;;14.88;54.99
27040;BME280;14589;51.578;7.306;2023-06-14T03:11:52;100963.06;;;14.83;56.12
27040;BME280;14589;51.578;7.306;2023-06-14T03:14:22;100968.88;;;14.80;56.81
27040;BME280;14589;51.578;7.306;2023-06-14T03:16:53;100975.88;;;14.74;57.25
27040;BME280;14589;51.578;7.306;2023-06-14T03:19:27;100978.59;;;14.74;57.78
27040;BME280;14589;51.578;7.306;2023-06-14T03:21:58;100976.56;;;14.68;58.33
27040;BME280;14589;51.578;7.306;2023-06-14T03:24:31;100980.63;;;14.64;58.17
27040;BME280;14589;51.578;7.306;2023-06-14T03:27:10;100978.72;;;14.56;58.78
27040;BME280;14589;51.578;7.306;2023-06-14T03:29:43;100984.53;;;14.53;58.74
27040;BME280;14589;51.578;7.306;2023-06-14T03:32:14;100984.34;;;14.47;59.13
27040;BME280;14589;51.578;7.306;2023-06-14T03:34:46;100996.44;;;14.44;59.19
27040;BME280;14589;51.578;7.306;2023-06-14T03:37:22;100991.97;;;14.35;58.82
27040;BME280;14589;51.578;7.306;2023-06-14T03:39:53;100992.72;;;14.37;58.78
27040;BME280;14589;51.578;7.306;2023-06-14T03:42:27;100997.97;;;14.39;59.46
27040;BME280;14589;51.578;7.306;2023-06-14T03:44:58;101013.34;;;14.40;59.99
27040;BME280;14589;51.578;7.306;2023-06-14T03:47:29;101013.97;;;14.34;59.26
27040;BME280;14589;51.578;7.306;2023-06-14T03:50:04;101001.69;;;14.30;59.76
27040;BME280;14589;51.578;7.306;2023-06-14T03:52:35;101009.22;;;14.36;60.32
27040;BME280;14589;51.578;7.306;2023-06-14T03:55:07;101017.53;;;14.34;60.07
27040;BME280;14589;51.578;7.306;2023-06-14T03:57:38;101021.13;;;14.35;60.16
27040;BME280;14589;51.578;7.306;2023-06-14T04:00:14;101020.28;;;14.34;60.50
27040;BME280;14589;51.578;7.306;2023-06-14T04:02:45;101015.16;;;14.31;60.99
27040;BME280;14589;51.578;7.306;2023-06-14T04:05:16;101018.91;;;14.30;60.79
27040;BME280;14589;51.578;7.306;2023-06-14T04:07:52;101025.22;;;14.31;61.04
27040;BME280;14589;51.578;7.306;2023-06-14T04:10:26;101023.00;;;14.34;61.29
27040;BME280;14589;51.578;7.306;2023-06-14T04:12:57;101035.84;;;14.42;60.72
27040;BME280;14589;51.578;7.306;2023-06-14T04:15:27;101037.06;;;14.47;60.66
27040;BME280;14589;51.578;7.306;2023-06-14T04:18:02;101043.03;;;14.51;60.21
27040;BME280;14589;51.578;7.306;2023-06-14T04:20:33;101043.75;;;14.69;58.23
27040;BME280;14589;51.578;7.306;2023-06-14T04:23:14;101058.78;;;14.81;57.48
27040;BME280;14589;51.578;7.306;2023-06-14T04:25:45;101047.88;;;14.89;59.19
27040;BME280;14589;51.578;7.306;2023-06-14T04:28:16;101054.56;;;15.03;58.51
27040;BME280;14589;51.578;7.306;2023-06-14T04:30:48;101057.81;;;15.15;58.16
27040;BME280;14589;51.578;7.306;2023-06-14T04:33:21;101055.59;;;15.26;57.56
27040;BME280;14589;51.578;7.306;2023-06-14T04:35:53;101062.56;;;15.45;57.81
27040;BME280;14589;51.578;7.306;2023-06-14T04:38:24;101071.13;;;15.58;56.49
27040;BME280;14589;51.578;7.306;2023-06-14T04:40:57;101066.16;;;15.70;55.57
27040;BME280;14589;51.578;7.306;2023-06-14T04:43:32;101061.88;;;15.84;55.55
27040;BME280;14589;51.578;7.306;2023-06-14T04:46:09;101065.78;;;15.97;55.22
27040;BME280;14589;51.578;7.306;2023-06-14T04:48:40;101074.41;;;16.17;53.58
27040;BME280;14589;51.578;7.306;2023-06-14T04:51:14;101068.38;;;16.30;53.27
27040;BME280;14589;51.578;7.306;2023-06-14T04:53:45;101068.66;;;16.43;52.14
27040;BME280;14589;51.578;7.306;2023-06-14T04:56:16;101077.31;;;16.63;52.57
27040;BME280;14589;51.578;7.306;2023-06-14T04:58:47;101073.81;;;16.77;52.04
27040;BME280;14589;51.578;7.306;2023-06-14T05:01:18;101073.53;;;16.94;51.82
27040;BME280;14589;51.578;7.306;2023-06-14T05:03:49;101075.38;;;17.02;50.88
27040;BME280;14589;51.578;7.306;2023-06-14T05:06:20;101094.06;;;17.21;50.26
27040;BME280;14589;51.578;7.306;2023-06-14T05:08:50;101074.78;;;17.29;49.97
27040;BME280;14589;51.578;7.306;2023-06-14T05:11:24;101078.25;;;17.46;50.11
27040;BME280;14589;51.578;7.306;2023-06-14T05:13:57;101078.66;;;17.58;49.11
27040;BME280;14589;51.578;7.306;2023-06-14T05:16:28;101075.44;;;17.77;49.08
27040;BME280;14589;51.578;7.306;2023-06-14T05:18:59;101081.38;;;17.81;48.50
27040;BME280;14589;51.578;7.306;2023-06-14T05:21:31;101082.72;;;17.99;48.34
27040;BME280;14589;51.578;7.306;2023-06-14T05:24:03;101080.25;;;18.04;48.13
27040;BME280;14589;51.578;7.306;2023-06-14T05:26:35;101078.09;;;18.00;47.16
27040;BME280;14589;51.578;7.306;2023-06-14T05:29:05;101091.53;;;18.09;46.32
27040;BME280;14589;51.578;7.306;2023-06-14T05:31:36;101087.16;;;18.15;47.37
27040;BME280;14589;51.578;7.306;2023-06-14T05:34:06;101091.13;;;18.27;45.87
27040;BME280;14589;51.578;7.306;2023-06-14T05:36:37;101087.00;;;18.31;46.71
27040;BME280;14589;51.578;7.306;2023-06-14T05:39:07;101095.41;;;18.30;46.31
27040;BME280;14589;51.578;7.306;2023-06-14T05:41:38;101091.81;;;18.44;45.76
27040;BME280;14589;51.578;7.306;2023-06-14T05:44:09;101096.84;;;18.55;45.87
27040;BME280;14589;51.578;7.306;2023-06-14T05:46:39;101090.66;;;18.53;45.33
27040;BME280;14589;51.578;7.306;2023-06-14T05:49:10;101091.53;;;18.68;45.33
27040;BME280;14589;51.578;7.306;2023-06-14T05:51:42;101101.56;;;18.76;44.82
27040;BME280;14589;51.578;7.306;2023-06-14T05:54:12;101095.72;;;18.85;44.81
27040;BME280;14589;51.578;7.306;2023-06-14T05:56:42;101101.75;;;18.95;44.21
27040;BME280;14589;51.578;7.306;2023-06-14T05:59:13;101101.53;;;19.12;43.96
27040;BME280;14589;51.578;7.306;2023-06-14T06:01:43;101100.22;;;19.29;44.61
27040;BME280;14589;51.578;7.306;2023-06-14T06:04:13;101096.19;;;19.25;44.02
27040;BME280;14589;51.578;7.306;2023-06-14T06:06:44;101096.25;;;19.31;43.63
27040;BME280;14589;51.578;7.306;2023-06-14T06:09:15;101116.41;;;19.17;43.19
27040;BME280;14589;51.578;7.306;2023-06-14T06:11:45;101102.56;;;19.32;44.29
27040;BME280;14589;51.578;7.306;2023-06-14T06:14:16;101104.19;;;19.26;43.97
27040;BME280;14589;51.578;7.306;2023-06-14T06:16:46;101103.19;;;19.49;43.61
27040;BME280;14589;51.578;7.306;2023-06-14T06:19:17;101109.09;;;19.46;43.16
27040;BME280;14589;51.578;7.306;2023-06-14T06:21:47;101106.38;;;19.73;43.14
27040;BME280;14589;51.578;7.306;2023-06-14T06:24:17;101102.53;;;19.68;42.99
27040;BME280;14589;51.578;7.306;2023-06-14T06:26:48;101099.91;;;19.88;42.91
27040;BME280;14589;51.578;7.306;2023-06-14T06:29:19;101120.19;;;20.08;41.92
27040;BME280;14589;51.578;7.306;2023-06-14T06:31:49;101115.72;;;20.07;41.30
27040;BME280;14589;51.578;7.306;2023-06-14T06:34:20;101114.97;;;20.19;41.26
27040;BME280;14589;51.578;7.306;2023-06-14T06:36:50;101114.56;;;20.23;41.67
27040;BME280;14589;51.578;7.306;2023-06-14T06:39:20;101118.00;;;20.31;42.15
27040;BME280;14589;51.578;7.306;2023-06-14T06:41:51;101124.25;;;20.18;41.06
27040;BME280;14589;51.578;7.306;2023-06-14T06:44:31;101133.31;;;20.34;41.00
27040;BME280;14589;51.578;7.306;2023-06-14T06:47:01;101137.47;;;20.57;39.97
27040;BME280;14589;51.578;7.306;2023-06-14T06:49:32;101133.66;;;20.58;40.27
27040;BME280;14589;51.578;7.306;2023-06-14T06:52:04;101143.22;;;20.63;40.32
27040;BME280;14589;51.578;7.306;2023-06-14T06:54:35;101145.56;;;20.66;39.84
27040;BME280;14589;51.578;7.306;2023-06-14T06:57:05;101151.09;;;20.66;39.32
27040;BME280;14589;51.578;7.306;2023-06-14T06:59:36;101144.41;;;20.94;39.57
27040;BME280;14589;51.578;7.306;2023-06-14T07:02:07;101146.50;;;20.79;38.98
27040;BME280;14589;51.578;7.306;2023-06-14T07:04:37;101151.66;;;21.02;39.13
27040;BME280;14589;51.578;7.306;2023-06-14T07:07:08;101141.25;;;20.97;38.85
27040;BME280;14589;51.578;7.306;2023-06-14T07:09:39;101151.31;;;21.18;38.33
27040;BME280;14589;51.578;7.306;2023-06-14T07:12:12;101155.16;;;21.24;38.46
27040;BME280;14589;51.578;7.306;2023-06-14T07:14:42;101157.97;;;21.44;37.96
27040;BME280;14589;51.578;7.306;2023-06-14T07:17:13;101155.44;;;21.62;38.82
27040;BME280;14589;51.578;7.306;2023-06-14T07:19:44;101154.78;;;21.40;38.66
27040;BME280;14589;51.578;7.306;2023-06-14T07:22:16;101149.06;;;21.74;37.40
27040;BME280;14589;51.578;7.306;2023-06-14T07:24:47;101155.91;;;22.05;37.76
27040;BME280;14589;51.578;7.306;2023-06-14T07:27:19;101147.81;;;22.10;36.65
27040;BME280;14589;51.578;7.306;2023-06-14T07:29:49;101158.66;;;21.98;36.11
27040;BME280;14589;51.578;7.306;2023-06-14T07:32:19;101157.78;;;21.91;35.67
27040;BME280;14589;51.578;7.306;2023-06-14T07:34:50;101152.91;;;21.54;36.36
27040;BME280;14589;51.578;7.306;2023-06-14T07:37:20;101164.41;;;21.90;36.16
27040;BME280;14589;51.578;7.306;2023-06-14T07:39:51;101153.56;;;21.89;36.02
27040;BME280;14589;51.578;7.306;2023-06-14T07:42:21;101156.34;;;22.08;36.39
27040;BME280;14589;51.578;7.306;2023-06-14T07:44:51;101158.25;;;22.01;35.68
27040;BME280;14589;51.578;7.306;2023-06-14T07:47:23;101155.47;;;22.21;36.08
27040;BME280;14589;51.578;7.306;2023-06-14T07:49:53;101155.25;;;22.23;36.39
27040;BME280;14589;51.578;7.306;2023-06-14T07:52:23;101155.41;;;22.41;36.00
27040;BME280;14589;51.578;7.306;2023-06-14T07:54:54;101161.75;;;22.61;35.37
27040;BME280;14589;51.578;7.306;2023-06-14T07:57:24;101156.88;;;22.56;35.30
27040;BME280;14589;51.578;7.306;2023-06-14T07:59:54;101147.50;;;22.64;35.01
27040;BME280;14589;51.578;7.306;2023-06-14T08:02:25;101152.94;;;22.97;35.07
27040;BME280;14589;51.578;7.306;2023-06-14T08:04:55;101150.28;;;22.64;35.59
27040;BME280;14589;51.578;7.306;2023-06-14T08:07:26;101152.06;;;22.96;34.68
27040;BME280;14589;51.578;7.306;2023-06-14T08:09:56;101144.41;;;22.98;34.18
27040;BME280;14589;51.578;7.306;2023-06-14T08:12:26;101154.53;;;23.18;32.61
27040;BME280;14589;51.578;7.306;2023-06-14T08:14:57;101159.31;;;22.97;32.53
27040;BME280;14589;51.578;7.306;2023-06-14T08:17:27;101159.59;;;23.27;31.60
27040;BME280;14589;51.578;7.306;2023-06-14T08:19:57;101152.34;;;23.33;31.89
27040;BME280;14589;51.578;7.306;2023-06-14T08:22:28;101156.81;;;23.65;32.13
27040;BME280;14589;51.578;7.306;2023-06-14T08:25:02;101152.09;;;23.72;31.44
27040;BME280;14589;51.578;7.306;2023-06-14T08:27:33;101162.88;;;23.56;30.34
27040;BME280;14589;51.578;7.306;2023-06-14T08:30:04;101151.44;;;23.70;30.05
27040;BME280;14589;51.578;7.306;2023-06-14T08:32:34;101155.81;;;23.85;30.22
27040;BME280;14589;51.578;7.306;2023-06-14T08:35:05;101158.25;;;23.99;30.26
27040;BME280;14589;51.578;7.306;2023-06-14T08:37:40;101160.69;;;24.14;29.69
27040;BME280;14589;51.578;7.306;2023-06-14T08:40:22;101156.78;;;23.97;30.13
27040;BME280;14589;51.578;7.306;2023-06-14T08:42:54;101169.09;;;23.45;30.49
27040;BME280;14589;51.578;7.306;2023-06-14T08:45:25;101155.69;;;22.97;31.26
27040;BME280;14589;51.578;7.306;2023-06-14T08:47:55;101154.69;;;23.67;30.33
27040;BME280;14589;51.578;7.306;2023-06-14T08:50:31;101153.59;;;23.37;30.58
27040;BME280;14589;51.578;7.306;2023-06-14T08:53:02;101150.91;;;23.87;30.47
27040;BME280;14589;51.578;7.306;2023-06-14T08:55:33;101154.91;;;23.91;30.08
27040;BME280;14589;51.578;7.306;2023-06-14T08:58:04;101165.47;;;23.51;29.87
27040;BME280;14589;51.578;7.306;2023-06-14T09:00:35;101142.75;;;23.92;29.49
27040;BME280;14589;51.578;7.306;2023-06-14T09:03:08;101147.06;;;23.88;30.20
27040;BME280;14589;51.578;7.306;2023-06-14T09:05:43;101146.34;;;23.99;30.00
27040;BME280;14589;51.578;7.306;2023-06-14T09:08:17;101148.88;;;23.75;29.41
27040;BME280;14589;51.578;7.306;2023-06-14T09:10:55;101158.81;;;24.33;28.90
27040;BME280;14589;51.578;7.306;2023-06-14T09:13:26;101153.47;;;24.13;28.98
27040;BME280;14589;51.578;7.306;2023-06-14T09:15:57;101158.75;;;24.39;28.43
27040;BME280;14589;51.578;7.306;2023-06-14T09:18:45;101156.97;;;24.27;29.15
27040;BME280;14589;51.578;7.306;2023-06-14T09:21:17;101164.44;;;24.26;28.80
27040;BME280;14589;51.578;7.306;2023-06-14T09:23:48;101163.91;;;24.36;29.19
27040;BME280;14589;51.578;7.306;2023-06-14T09:26:19;101178.50;;;24.49;28.84
27040;BME280;14589;51.578;7.306;2023-06-14T09:28:50;101183.00;;;24.87;30.04
27040;BME280;14589;51.578;7.306;2023-06-14T09:31:28;101167.13;;;24.94;27.40
27040;BME280;14589;51.578;7.306;2023-06-14T09:34:02;101167.53;;;25.27;27.73
27040;BME280;14589;51.578;7.306;2023-06-14T09:36:32;101168.97;;;25.48;26.83
27040;BME280;14589;51.578;7.306;2023-06-14T09:39:03;101180.75;;;25.14;26.94
27040;BME280;14589;51.578;7.306;2023-06-14T09:41:39;101171.19;;;25.10;27.93
27040;BME280;14589;51.578;7.306;2023-06-14T09:44:10;101179.13;;;24.88;27.89
27040;BME280;14589;51.578;7.306;2023-06-14T09:46:44;101185.44;;;25.13;27.97
27040;BME280;14589;51.578;7.306;2023-06-14T09:49:14;101175.25;;;25.55;27.42
27040;BME280;14589;51.578;7.306;2023-06-14T09:51:45;101187.78;;;25.46;28.02
27040;BME280;14589;51.578;7.306;2023-06-14T09:54:22;101185.28;;;25.26;26.43
27040;BME280;14589;51.578;7.306;2023-06-14T09:56:56;101190.66;;;25.69;27.00
27040;BME280;14589;51.578;7.306;2023-06-14T09:59:29;101183.81;;;24.87;28.15
27040;BME280;14589;51.578;7.306;2023-06-14T10:02:10;101177.19;;;25.55;28.16
27040;BME280;14589;51.578;7.306;2023-06-14T10:04:46;101181.78;;;25.79;27.05
27040;BME280;14589;51.578;7.306;2023-06-14T10:07:19;101183.72;;;25.90;26.71
27040;BME280;14589;51.578;7.306;2023-06-14T10:09:53;101179.88;;;25.31;27.69
27040;BME280;14589;51.578;7.306;2023-06-14T10:12:24;101180.16;;;25.42;27.62
27040;BME280;14589;51.578;7.306;2023-06-14T10:14:55;101181.47;;;25.69;27.84
27040;BME280;14589;51.578;7.306;2023-06-14T10:17:39;101179.69;;;25.45;27.59
27040;BME280;14589;51.578;7.306;2023-06-14T10:20:25;101169.84;;;26.13;27.24
27040;BME280;14589;51.578;7.306;2023-06-14T10:23:03;101185.66;;;26.01;27.32
27040;BME280;14589;51.578;7.306;2023-06-14T10:25:35;101168.66;;;26.09;27.55
27040;BME280;14589;51.578;7.306;2023-06-14T10:28:17;101177.88;;;26.56;27.39
27040;BME280;14589;51.578;7.306;2023-06-14T10:31:03;101170.47;;;26.97;27.12
27040;BME280;14589;51.578;7.306;2023-06-14T10:33:36;101178.44;;;26.82;26.82
27040;BME280;14589;51.578;7.306;2023-06-14T10:36:28;101176.03;;;27.25;26.21
27040;BME280;14589;51.578;7.306;2023-06-14T10:41:36;101174.91;;;27.38;25.65
27040;BME280;14589;51.578;7.306;2023-06-14T10:47:00;101166.47;;;27.78;25.40
27040;BME280;14589;51.578;7.306;2023-06-14T10:49:39;101162.34;;;27.64;25.77
27040;BME280;14589;51.578;7.306;2023-06-14T10:52:13;101167.53;;;27.89;25.75
27040;BME280;14589;51.578;7.306;2023-06-14T10:55:16;101160.22;;;27.14;26.20
27040;BME280;14589;51.578;7.306;2023-06-14T10:57:53;101151.59;;;27.16;26.22
27040;BME280;14589;51.578;7.306;2023-06-14T11:00:33;101159.72;;;27.91;25.38
27040;BME280;14589;51.578;7.306;2023-06-14T11:05:48;101166.59;;;27.83;26.19
27040;BME280;14589;51.578;7.306;2023-06-14T11:11:25;101156.09;;;27.73;25.35
27040;BME280;14589;51.578;7.306;2023-06-14T11:14:01;101149.91;;;28.93;24.99
27040;BME280;14589;51.578;7.306;2023-06-14T11:16:34;101159.06;;;29.11;24.18
27040;BME280;14589;51.578;7.306;2023-06-14T11:19:05;101161.38;;;28.58;23.58
27040;BME280;14589;51.578;7.306;2023-06-14T11:21:40;101159.47;;;28.09;24.99
27040;BME280;14589;51.578;7.306;2023-06-14T11:24:11;101140.44;;;27.72;25.24
27040;BME280;14589;51.578;7.306;2023-06-14T11:26:42;101159.06;;;28.50;24.56
27040;BME280;14589;51.578;7.306;2023-06-14T11:29:15;101159.97;;;28.39;24.82
27040;BME280;14589;51.578;7.306;2023-06-14T11:31:46;101166.59;;;28.00;24.87
27040;BME280;14589;51.578;7.306;2023-06-14T11:34:17;101158.09;;;28.62;24.29
27040;BME280;14589;51.578;7.306;2023-06-14T11:36:57;101153.25;;;28.02;25.01
27040;BME280;14589;51.578;7.306;2023-06-14T11:39:27;101157.06;;;28.68;23.97
27040;BME280;14589;51.578;7.306;2023-06-14T11:41:58;101169.16;;;28.95;24.07
27040;BME280;14589;51.578;7.306;2023-06-14T11:44:31;101156.25;;;29.11;24.11
27040;BME280;14589;51.578;7.306;2023-06-14T11:47:03;101146.81;;;28.95;23.17
27040;BME280;14589;51.578;7.306;2023-06-14T11:49:36;101143.09;;;29.06;23.66
27040;BME280;14589;51.578;7.306;2023-06-14T11:52:07;101149.19;;;27.93;25.25
27040;BME280;14589;51.578;7.306;2023-06-14T11:54:38;101152.72;;;28.22;25.30
27040;BME280;14589;51.578;7.306;2023-06-14T11:57:10;101153.16;;;28.30;25.17
27040;BME280;14589;51.578;7.306;2023-06-14T11:59:41;101143.59;;;27.76;25.71
27040;BME280;14589;51.578;7.306;2023-06-14T12:02:21;101145.66;;;28.14;25.10
27040;BME280;14589;51.578;7.306;2023-06-14T12:04:55;101157.13;;;28.01;26.08
27040;BME280;14589;51.578;7.306;2023-06-14T12:07:25;101157.00;;;27.62;25.52
27040;BME280;14589;51.578;7.306;2023-06-14T12:12:30;101167.03;;;28.80;24.48
27040;BME280;14589;51.578;7.306;2023-06-14T12:15:03;101157.38;;;28.71;24.84
27040;BME280;14589;51.578;7.306;2023-06-14T12:17:34;101149.19;;;29.52;23.26
27040;BME280;14589;51.578;7.306;2023-06-14T12:20:09;101157.00;;;28.63;24.66
27040;BME280;14589;51.578;7.306;2023-06-14T12:22:53;101140.38;;;29.65;23.93
27040;BME280;14589;51.578;7.306;2023-06-14T12:27:58;101142.88;;;28.52;24.64
27040;BME280;14589;51.578;7.306;2023-06-14T12:30:28;101153.13;;;29.83;23.84
27040;BME280;14589;51.578;7.306;2023-06-14T12:32:59;101147.06;;;28.72;23.91
27040;BME280;14589;51.578;7.306;2023-06-14T12:35:30;101144.44;;;28.82;24.08
27040;BME280;14589;51.578;7.306;2023-06-14T12:38:01;101125.00;;;29.14;23.30
27040;BME280;14589;51.578;7.306;2023-06-14T12:40:33;101131.38;;;29.09;23.44
27040;BME280;14589;51.578;7.306;2023-06-14T12:43:03;101153.16;;;28.30;24.03
27040;BME280;14589;51.578;7.306;2023-06-14T12:45:34;101156.78;;;28.86;23.53
27040;BME280;14589;51.578;7.306;2023-06-14T12:48:04;101148.03;;;28.99;24.15
27040;BME280;14589;51.578;7.306;2023-06-14T12:50:35;101139.91;;;29.73;23.46
27040;BME280;14589;51.578;7.306;2023-06-14T12:53:06;101143.13;;;29.87;22.94
27040;BME280;14589;51.578;7.306;2023-06-14T12:55:36;101145.97;;;30.24;21.70
27040;BME280;14589;51.578;7.306;2023-06-14T12:58:06;101139.72;;;30.11;21.59
27040;BME280;14589;51.578;7.306;2023-06-14T13:00:37;101141.81;;;30.73;22.09
27040;BME280;14589;51.578;7.306;2023-06-14T13:03:08;101138.09;;;31.15;21.70
27040;BME280;14589;51.578;7.306;2023-06-14T13:05:38;101134.06;;;31.01;22.02
27040;BME280;14589;51.578;7.306;2023-06-14T13:08:11;101139.09;;;30.99;22.24
27040;BME280;14589;51.578;7.306;2023-06-14T13:10:42;101138.34;;;30.56;21.90
27040;BME280;14589;51.578;7.306;2023-06-14T13:13:12;101150.00;;;30.85;21.55
27040;BME280;14589;51.578;7.306;2023-06-14T13:15:43;101141.41;;;31.07;21.28
27040;BME280;14589;51.578;7.306;2023-06-14T13:18:16;101149.66;;;29.97;22.38
27040;BME280;14589;51.578;7.306;2023-06-14T13:20:50;101146.53;;;30.31;22.66
27040;BME280;14589;51.578;7.306;2023-06-14T13:23:21;101140.41;;;29.97;22.04
27040;BME280;14589;51.578;7.306;2023-06-14T13:25:51;101152.13;;;30.68;21.57
27040;BME280;14589;51.578;7.306;2023-06-14T13:28:21;101130.09;;;30.39;21.65
27040;BME280;14589;51.578;7.306;2023-06-14T13:30:52;101173.16;;;29.96;21.69
27040;BME280;14589;51.578;7.306;2023-06-14T13:33:22;101141.75;;;31.20;21.66
27040;BME280;14589;51.578;7.306;2023-06-14T13:35:57;101157.25;;;31.53;20.23